sensor_id;sensor_type;location;lat;lon;timestamp;pressure;altitude;pressure_sealevel;temperature;humidity
65384;BME280;51986;52.788;41.368;2022-09-03T00:01:22;99911.75;;;8.56;49.16
65384;BME280;51986;52.788;41.368;2022-09-03T00:04:01;99908.28;;;8.48;49.10
65384;BME280;51986;52.788;41.368;2022-09-03T00:06:39;99918.16;;;8.59;49.21
65384;BME280;51986;52.788;41.368;2022-09-03T00:09:30;99937.34;;;8.63;49.16
65384;BME280;51986;52.788;41.368;2022-09-03T00:12:09;99922.25;;;8.56;48.89
65384;BME280;51986;52.788;41.368;2022-09-03T00:14:41;99930.50;;;8.55;49.25
65384;BME280;51986;52.788;41.368;2022-09-03T00:17:37;99937.34;;;8.63;49.21
65384;BME280;51986;52.788;41.368;2022-09-03T00:20:14;99942.47;;;8.48;49.42
65384;BME280;51986;52.788;41.368;2022-09-03T00:22:46;99921.75;;;8.43;49.29
65384;BME280;51986;52.788;41.368;2022-09-03T00:25:23;99938.72;;;8.49;49.20
65384;BME280;51986;52.788;41.368;2022-09-03T00:27:56;99937.72;;;8.61;48.87
65384;BME280;51986;52.788;41.368;2022-09-03T00:30:23;99948.25;;;8.65;48.76
65384;BME280;51986;52.788;41.368;2022-09-03T00:33:00;99949.38;;;8.64;48.75
65384;BME280;51986;52.788;41.368;2022-09-03T00:38:05;99953.50;;;8.65;48.98
65384;BME280;51986;52.788;41.368;2022-09-03T00:49:08;99966.97;;;8.60;49.49
65384;BME280;51986;52.788;41.368;2022-09-03T00:51:54;99959.50;;;8.65;49.00
65384;BME280;51986;52.788;41.368;2022-09-03T01:05:41;99944.69;;;8.46;49.01
65384;BME280;51986;52.788;41.368;2022-09-03T01:14:53;99964.69;;;8.55;49.00
65384;BME280;51986;52.788;41.368;2022-09-03T01:22:56;99969.56;;;8.52;48.83
65384;BME280;51986;52.788;41.368;2022-09-03T01:25:48;99975.47;;;8.46;49.14
65384;BME280;51986;52.788;41.368;2022-09-03T01:45:22;99985.56;;;8.40;49.25
65384;BME280;51986;52.788;41.368;2022-09-03T01:56:26;99996.50;;;8.42;49.74
65384;BME280;51986;52.788;41.368;2022-09-03T01:59:06;99982.81;;;8.30;49.89
65384;BME280;51986;52.788;41.368;2022-09-03T02:01:45;99991.41;;;8.23;50.39
65384;BME280;51986;52.788;41.368;2022-09-03T02:04:21;100000.38;;;8.22;50.04
65384;BME280;51986;52.788;41.368;2022-09-03T02:06:53;99990.22;;;8.20;50.28
65384;BME280;51986;52.788;41.368;2022-09-03T02:09:22;99981.06;;;8.07;50.08
65384;BME280;51986;52.788;41.368;2022-09-03T02:11:57;99989.09;;;8.18;50.01
65384;BME280;51986;52.788;41.368;2022-09-03T02:14:29;100006.69;;;8.14;49.84
65384;BME280;51986;52.788;41.368;2022-09-03T02:16:59;100021.75;;;8.20;50.28
65384;BME280;51986;52.788;41.368;2022-09-03T02:19:29;99998.06;;;8.17;49.71
65384;BME280;51986;52.788;41.368;2022-09-03T02:21:57;100005.16;;;8.13;49.78
65384;BME280;51986;52.788;41.368;2022-09-03T02:24:24;99994.44;;;7.95;50.37
65384;BME280;51986;52.788;41.368;2022-09-03T02:26:52;100007.91;;;7.93;50.65
65384;BME280;51986;52.788;41.368;2022-09-03T02:29:19;100001.88;;;7.89;50.62
65384;BME280;51986;52.788;41.368;2022-09-03T02:31:46;100014.44;;;7.77;50.92
65384;BME280;51986;52.788;41.368;2022-09-03T02:34:13;100016.19;;;7.69;51.34
65384;BME280;51986;52.788;41.368;2022-09-03T02:36:43;100006.00;;;7.64;51.57
65384;BME280;51986;52.788;41.368;2022-09-03T02:39:12;100015.13;;;7.70;51.14
65384;BME280;51986;52.788;41.368;2022-09-03T02:41:39;100027.16;;;7.74;51.20
65384;BME280;51986;52.788;41.368;2022-09-03T02:44:19;100057.97;;;8.34;50.21
65384;BME280;51986;52.788;41.368;2022-09-03T02:47:06;100028.22;;;9.38;47.61
65384;BME280;51986;52.788;41.368;2022-09-03T02:49:34;100039.13;;;9.95;45.51
65384;BME280;51986;52.788;41.368;2022-09-03T02:52:04;100034.16;;;10.74;43.65
65384;BME280;51986;52.788;41.368;2022-09-03T02:54:32;100029.31;;;11.44;42.08
65384;BME280;51986;52.788;41.368;2022-09-03T02:56:59;100035.69;;;11.89;40.67
65384;BME280;51986;52.788;41.368;2022-09-03T02:59:26;100040.22;;;12.76;38.88
65384;BME280;51986;52.788;41.368;2022-09-03T03:01:54;100027.75;;;13.29;38.00
65384;BME280;51986;52.788;41.368;2022-09-03T03:04:21;100011.63;;;13.92;36.59
65384;BME280;51986;52.788;41.368;2022-09-03T03:06:48;100043.00;;;14.31;35.93
65384;BME280;51986;52.788;41.368;2022-09-03T03:09:18;100037.00;;;14.84;35.01
65384;BME280;51986;52.788;41.368;2022-09-03T03:11:47;100035.53;;;15.30;33.79
65384;BME280;51986;52.788;41.368;2022-09-03T03:14:14;100026.34;;;15.98;32.83
65384;BME280;51986;52.788;41.368;2022-09-03T03:16:41;100041.34;;;16.64;31.51
65384;BME280;51986;52.788;41.368;2022-09-03T03:19:08;100060.03;;;17.13;30.58
65384;BME280;51986;52.788;41.368;2022-09-03T03:21:35;100024.53;;;17.49;30.33
65384;BME280;51986;52.788;41.368;2022-09-03T03:24:02;100071.28;;;17.83;29.75
65384;BME280;51986;52.788;41.368;2022-09-03T03:26:30;100052.09;;;18.42;28.96
65384;BME280;51986;52.788;41.368;2022-09-03T03:28:59;100026.47;;;18.32;28.38
65384;BME280;51986;52.788;41.368;2022-09-03T03:31:26;100066.53;;;18.70;28.16
65384;BME280;51986;52.788;41.368;2022-09-03T03:33:55;100034.91;;;18.31;28.45
65384;BME280;51986;52.788;41.368;2022-09-03T03:36:24;100038.34;;;18.69;28.32
65384;BME280;51986;52.788;41.368;2022-09-03T03:38:56;100051.25;;;19.09;27.96
65384;BME280;51986;52.788;41.368;2022-09-03T03:41:28;100046.06;;;19.28;27.81
65384;BME280;51986;52.788;41.368;2022-09-03T03:43:58;100045.97;;;19.31;27.35
65384;BME280;51986;52.788;41.368;2022-09-03T03:46:29;100059.56;;;19.24;27.92
65384;BME280;51986;52.788;41.368;2022-09-03T03:48:57;100048.75;;;19.28;27.66
65384;BME280;51986;52.788;41.368;2022-09-03T03:51:24;100058.59;;;19.31;27.72
65384;BME280;51986;52.788;41.368;2022-09-03T03:53:55;100058.97;;;19.42;27.77
65384;BME280;51986;52.788;41.368;2022-09-03T03:56:27;100042.47;;;19.09;27.81
65384;BME280;51986;52.788;41.368;2022-09-03T03:58:55;100057.97;;;19.14;27.88
65384;BME280;51986;52.788;41.368;2022-09-03T04:01:24;100056.69;;;18.93;28.02
65384;BME280;51986;52.788;41.368;2022-09-03T04:03:54;100057.03;;;18.69;28.88
65384;BME280;51986;52.788;41.368;2022-09-03T04:06:22;100073.31;;;18.62;29.08
65384;BME280;51986;52.788;41.368;2022-09-03T04:08:50;100063.03;;;18.73;28.88
65384;BME280;51986;52.788;41.368;2022-09-03T04:11:19;100051.69;;;18.57;29.21
65384;BME280;51986;52.788;41.368;2022-09-03T04:13:47;100073.59;;;18.64;29.24
65384;BME280;51986;52.788;41.368;2022-09-03T04:16:17;100075.47;;;18.13;30.02
65384;BME280;51986;52.788;41.368;2022-09-03T04:18:45;100043.03;;;17.98;29.85
65384;BME280;51986;52.788;41.368;2022-09-03T04:21:18;100052.09;;;17.88;30.52
65384;BME280;51986;52.788;41.368;2022-09-03T04:23:46;100068.78;;;17.76;31.19
65384;BME280;51986;52.788;41.368;2022-09-03T04:26:17;100062.84;;;17.55;31.41
65384;BME280;51986;52.788;41.368;2022-09-03T04:28:44;100053.72;;;17.40;32.02
65384;BME280;51986;52.788;41.368;2022-09-03T04:31:14;100094.31;;;16.79;33.23
65384;BME280;51986;52.788;41.368;2022-09-03T04:33:45;100057.94;;;16.72;33.13
65384;BME280;51986;52.788;41.368;2022-09-03T04:36:12;100068.41;;;16.47;33.71
65384;BME280;51986;52.788;41.368;2022-09-03T04:38:41;100061.97;;;16.44;33.80
65384;BME280;51986;52.788;41.368;2022-09-03T04:41:13;100078.47;;;15.76;35.30
65384;BME280;51986;52.788;41.368;2022-09-03T04:43:41;100067.63;;;15.86;35.07
65384;BME280;51986;52.788;41.368;2022-09-03T04:46:10;100086.69;;;15.61;35.36
65384;BME280;51986;52.788;41.368;2022-09-03T04:48:47;100086.22;;;15.43;35.94
65384;BME280;51986;52.788;41.368;2022-09-03T04:51:17;100074.66;;;15.30;36.41
65384;BME280;51986;52.788;41.368;2022-09-03T04:53:46;100094.06;;;15.50;36.38
65384;BME280;51986;52.788;41.368;2022-09-03T04:56:14;100084.13;;;15.31;36.65
65384;BME280;51986;52.788;41.368;2022-09-03T04:58:42;100068.09;;;15.38;36.40
65384;BME280;51986;52.788;41.368;2022-09-03T05:01:11;100077.31;;;15.30;37.06
65384;BME280;51986;52.788;41.368;2022-09-03T05:03:38;100081.00;;;15.36;37.12
65384;BME280;51986;52.788;41.368;2022-09-03T05:06:05;100080.03;;;15.50;36.86
65384;BME280;51986;52.788;41.368;2022-09-03T05:08:33;100089.91;;;15.26;36.92
65384;BME280;51986;52.788;41.368;2022-09-03T05:11:00;100070.72;;;15.14;37.17
65384;BME280;51986;52.788;41.368;2022-09-03T05:13:27;100083.53;;;15.47;37.36
65384;BME280;51986;52.788;41.368;2022-09-03T05:16:04;100096.03;;;15.69;36.86
65384;BME280;51986;52.788;41.368;2022-09-03T05:18:32;100075.34;;;15.57;36.96
65384;BME280;51986;52.788;41.368;2022-09-03T05:21:00;100077.03;;;15.71;36.45
65384;BME280;51986;52.788;41.368;2022-09-03T05:23:28;100085.66;;;15.99;36.23
65384;BME280;51986;52.788;41.368;2022-09-03T05:26:13;100115.53;;;16.06;35.60
65384;BME280;51986;52.788;41.368;2022-09-03T05:28:41;100098.13;;;16.02;35.51
65384;BME280;51986;52.788;41.368;2022-09-03T05:31:14;100093.78;;;15.68;36.20
65384;BME280;51986;52.788;41.368;2022-09-03T05:33:43;100099.25;;;16.24;35.11
65384;BME280;51986;52.788;41.368;2022-09-03T05:36:13;100081.31;;;16.28;35.08
65384;BME280;51986;52.788;41.368;2022-09-03T05:38:41;100100.81;;;16.41;34.95
65384;BME280;51986;52.788;41.368;2022-09-03T05:41:10;100111.41;;;16.81;34.82
65384;BME280;51986;52.788;41.368;2022-09-03T05:43:38;100122.19;;;17.10;34.07
65384;BME280;51986;52.788;41.368;2022-09-03T05:46:13;100135.03;;;17.32;33.67
65384;BME280;51986;52.788;41.368;2022-09-03T05:48:40;100103.03;;;17.32;33.65
65384;BME280;51986;52.788;41.368;2022-09-03T05:51:08;100096.69;;;17.42;33.38
65384;BME280;51986;52.788;41.368;2022-09-03T05:53:37;100127.09;;;17.12;33.52
65384;BME280;51986;52.788;41.368;2022-09-03T05:56:23;100097.53;;;17.06;33.72
65384;BME280;51986;52.788;41.368;2022-09-03T05:58:53;100124.09;;;17.10;33.16
65384;BME280;51986;52.788;41.368;2022-09-03T06:01:25;100125.69;;;17.07;33.39
65384;BME280;51986;52.788;41.368;2022-09-03T06:04:13;100137.53;;;17.71;32.89
65384;BME280;51986;52.788;41.368;2022-09-03T06:06:44;100119.72;;;17.52;32.74
65384;BME280;51986;52.788;41.368;2022-09-03T06:09:34;100128.69;;;18.04;32.66
65384;BME280;51986;52.788;41.368;2022-09-03T06:12:01;100130.22;;;17.88;31.69
65384;BME280;51986;52.788;41.368;2022-09-03T06:14:30;100125.03;;;17.97;31.88
65384;BME280;51986;52.788;41.368;2022-09-03T06:16:57;100128.38;;;18.31;31.31
65384;BME280;51986;52.788;41.368;2022-09-03T06:19:24;100141.50;;;18.25;30.98
65384;BME280;51986;52.788;41.368;2022-09-03T06:21:51;100143.50;;;17.92;32.08
65384;BME280;51986;52.788;41.368;2022-09-03T06:24:21;100136.09;;;18.29;31.89
65384;BME280;51986;52.788;41.368;2022-09-03T06:26:52;100145.28;;;18.40;32.12
65384;BME280;51986;52.788;41.368;2022-09-03T06:29:19;100149.31;;;18.03;31.47
65384;BME280;51986;52.788;41.368;2022-09-03T06:31:46;100130.09;;;18.08;31.78
65384;BME280;51986;52.788;41.368;2022-09-03T06:34:13;100137.53;;;17.55;32.02
65384;BME280;51986;52.788;41.368;2022-09-03T06:36:41;100139.88;;;17.20;32.71
65384;BME280;51986;52.788;41.368;2022-09-03T06:39:08;100135.97;;;17.41;32.51
65384;BME280;51986;52.788;41.368;2022-09-03T06:41:35;100136.78;;;17.55;32.22
65384;BME280;51986;52.788;41.368;2022-09-03T06:44:04;100124.44;;;16.95;33.46
65384;BME280;51986;52.788;41.368;2022-09-03T06:46:35;100132.63;;;17.37;32.85
65384;BME280;51986;52.788;41.368;2022-09-03T06:49:02;100144.63;;;17.62;32.48
65384;BME280;51986;52.788;41.368;2022-09-03T06:51:30;100146.38;;;17.68;32.50
65384;BME280;51986;52.788;41.368;2022-09-03T06:54:03;100147.06;;;18.02;31.96
65384;BME280;51986;52.788;41.368;2022-09-03T06:56:31;100156.03;;;17.79;32.48
65384;BME280;51986;52.788;41.368;2022-09-03T06:59:07;100163.47;;;17.55;32.60
65384;BME280;51986;52.788;41.368;2022-09-03T07:01:35;100164.03;;;17.79;32.29
65384;BME280;51986;52.788;41.368;2022-09-03T07:04:04;100164.94;;;17.88;32.23
65384;BME280;51986;52.788;41.368;2022-09-03T07:06:35;100160.91;;;18.13;31.53
65384;BME280;51986;52.788;41.368;2022-09-03T07:09:12;100160.25;;;17.92;31.48
65384;BME280;51986;52.788;41.368;2022-09-03T07:11:39;100160.50;;;18.14;30.68
65384;BME280;51986;52.788;41.368;2022-09-03T07:14:06;100159.16;;;18.35;30.58
65384;BME280;51986;52.788;41.368;2022-09-03T07:16:35;100149.13;;;18.39;30.57
65384;BME280;51986;52.788;41.368;2022-09-03T07:19:04;100169.56;;;18.17;30.87
65384;BME280;51986;52.788;41.368;2022-09-03T07:21:33;100145.94;;;18.57;30.73
65384;BME280;51986;52.788;41.368;2022-09-03T07:24:00;100146.81;;;18.67;29.91
65384;BME280;51986;52.788;41.368;2022-09-03T07:26:32;100156.03;;;18.79;29.93
65384;BME280;51986;52.788;41.368;2022-09-03T07:28:59;100139.56;;;18.93;28.85
65384;BME280;51986;52.788;41.368;2022-09-03T07:31:32;100118.72;;;19.13;28.85
65384;BME280;51986;52.788;41.368;2022-09-03T07:34:23;100128.44;;;19.45;29.19
65384;BME280;51986;52.788;41.368;2022-09-03T07:36:52;100124.72;;;19.30;28.73
65384;BME280;51986;52.788;41.368;2022-09-03T07:39:22;100123.28;;;19.38;28.78
65384;BME280;51986;52.788;41.368;2022-09-03T07:41:50;100132.41;;;18.64;28.23
65384;BME280;51986;52.788;41.368;2022-09-03T07:44:17;100129.31;;;18.91;27.96
65384;BME280;51986;52.788;41.368;2022-09-03T07:46:44;100125.56;;;18.89;28.39
65384;BME280;51986;52.788;41.368;2022-09-03T07:49:12;100141.16;;;19.29;28.74
65384;BME280;51986;52.788;41.368;2022-09-03T07:51:39;100122.50;;;19.63;27.84
65384;BME280;51986;52.788;41.368;2022-09-03T07:54:08;100108.63;;;19.43;28.55
65384;BME280;51986;52.788;41.368;2022-09-03T07:56:37;100125.50;;;19.52;28.18
65384;BME280;51986;52.788;41.368;2022-09-03T07:59:04;100124.38;;;19.28;27.17
65384;BME280;51986;52.788;41.368;2022-09-03T08:01:32;100134.97;;;19.32;27.17
65384;BME280;51986;52.788;41.368;2022-09-03T08:04:00;100107.47;;;19.44;27.47
65384;BME280;51986;52.788;41.368;2022-09-03T08:06:29;100130.94;;;19.62;27.29
65384;BME280;51986;52.788;41.368;2022-09-03T08:08:58;100126.84;;;19.83;27.23
65384;BME280;51986;52.788;41.368;2022-09-03T08:11:32;100121.22;;;19.90;26.83
65384;BME280;51986;52.788;41.368;2022-09-03T08:14:13;100128.09;;;20.13;27.44
65384;BME280;51986;52.788;41.368;2022-09-03T08:16:43;100118.06;;;20.26;27.36
65384;BME280;51986;52.788;41.368;2022-09-03T08:19:11;100144.03;;;20.38;26.99
65384;BME280;51986;52.788;41.368;2022-09-03T08:21:38;100116.06;;;20.17;26.63
65384;BME280;51986;52.788;41.368;2022-09-03T08:24:05;100130.72;;;20.25;27.23
65384;BME280;51986;52.788;41.368;2022-09-03T08:26:38;100116.44;;;20.28;26.83
65384;BME280;51986;52.788;41.368;2022-09-03T08:29:05;100123.84;;;20.24;26.65
65384;BME280;51986;52.788;41.368;2022-09-03T08:31:34;100134.94;;;20.14;27.23
65384;BME280;51986;52.788;41.368;2022-09-03T08:34:04;100107.56;;;19.75;27.39
65384;BME280;51986;52.788;41.368;2022-09-03T08:36:36;100115.91;;;19.77;27.79
65384;BME280;51986;52.788;41.368;2022-09-03T08:39:05;100131.63;;;20.10;26.90
65384;BME280;51986;52.788;41.368;2022-09-03T08:52:37;100101.44;;;20.62;25.90
65384;BME280;51986;52.788;41.368;2022-09-03T08:55:21;100110.31;;;20.50;25.20
65384;BME280;51986;52.788;41.368;2022-09-03T08:57:54;100106.66;;;20.35;25.62
65384;BME280;51986;52.788;41.368;2022-09-03T09:00:23;100101.84;;;20.83;25.01
65384;BME280;51986;52.788;41.368;2022-09-03T09:05:47;100095.63;;;20.33;25.22
65384;BME280;51986;52.788;41.368;2022-09-03T09:08:31;100093.00;;;20.42;25.67
65384;BME280;51986;52.788;41.368;2022-09-03T09:22:37;100079.88;;;20.66;24.71
65384;BME280;51986;52.788;41.368;2022-09-03T09:25:11;100094.78;;;21.35;24.60
65384;BME280;51986;52.788;41.368;2022-09-03T09:27:59;100081.41;;;21.53;24.19
65384;BME280;51986;52.788;41.368;2022-09-03T09:30:32;100097.50;;;21.44;23.44
65384;BME280;51986;52.788;41.368;2022-09-03T09:32:59;100058.97;;;21.10;24.02
65384;BME280;51986;52.788;41.368;2022-09-03T09:35:25;100082.41;;;21.28;24.25
65384;BME280;51986;52.788;41.368;2022-09-03T09:37:55;100092.06;;;20.67;24.78
65384;BME280;51986;52.788;41.368;2022-09-03T09:43:14;100069.66;;;20.92;24.64
65384;BME280;51986;52.788;41.368;2022-09-03T09:45:44;100075.81;;;20.61;24.29
65384;BME280;51986;52.788;41.368;2022-09-03T09:50:46;100072.13;;;20.68;24.25
65384;BME280;51986;52.788;41.368;2022-09-03T09:53:17;100081.78;;;20.34;24.65
65384;BME280;51986;52.788;41.368;2022-09-03T09:55:55;100056.53;;;20.44;23.85
65384;BME280;51986;52.788;41.368;2022-09-03T09:58:25;100059.38;;;20.19;23.38
65384;BME280;51986;52.788;41.368;2022-09-03T10:00:58;100050.16;;;20.51;23.55
65384;BME280;51986;52.788;41.368;2022-09-03T10:03:26;100043.59;;;20.52;23.72
65384;BME280;51986;52.788;41.368;2022-09-03T10:06:08;100045.28;;;20.27;24.58
65384;BME280;51986;52.788;41.368;2022-09-03T10:08:35;100062.50;;;20.80;24.74
65384;BME280;51986;52.788;41.368;2022-09-03T10:11:03;100075.38;;;21.03;23.82
65384;BME280;51986;52.788;41.368;2022-09-03T10:13:39;100067.50;;;21.18;23.90
65384;BME280;51986;52.788;41.368;2022-09-03T10:16:23;100059.22;;;20.85;24.40
65384;BME280;51986;52.788;41.368;2022-09-03T10:19:17;100069.03;;;20.78;23.92
65384;BME280;51986;52.788;41.368;2022-09-03T10:22:11;100063.91;;;20.62;24.20
65384;BME280;51986;52.788;41.368;2022-09-03T10:24:57;100049.25;;;20.94;23.46
65384;BME280;51986;52.788;41.368;2022-09-03T10:27:24;100045.81;;;20.85;22.28
65384;BME280;51986;52.788;41.368;2022-09-03T10:29:51;100064.16;;;20.55;23.12
65384;BME280;51986;52.788;41.368;2022-09-03T10:35:27;100038.56;;;20.23;22.11
65384;BME280;51986;52.788;41.368;2022-09-03T10:38:19;100043.63;;;20.92;21.75
65384;BME280;51986;52.788;41.368;2022-09-03T10:44:08;100016.59;;;20.37;22.60
65384;BME280;51986;52.788;41.368;2022-09-03T10:46:50;100012.94;;;20.53;22.25
65384;BME280;51986;52.788;41.368;2022-09-03T11:02:01;100011.28;;;20.96;22.36
65384;BME280;51986;52.788;41.368;2022-09-03T11:06:53;100006.66;;;21.06;22.47
65384;BME280;51986;52.788;41.368;2022-09-03T11:12:07;99982.88;;;20.58;22.73
65384;BME280;51986;52.788;41.368;2022-09-03T11:17:24;100005.47;;;20.48;23.08
65384;BME280;51986;52.788;41.368;2022-09-03T11:22:43;99993.81;;;20.33;22.86
65384;BME280;51986;52.788;41.368;2022-09-03T11:25:14;99994.84;;;20.26;23.25
65384;BME280;51986;52.788;41.368;2022-09-03T11:27:49;99982.00;;;20.61;22.75
65384;BME280;51986;52.788;41.368;2022-09-03T11:33:06;99988.44;;;20.33;23.67
65384;BME280;51986;52.788;41.368;2022-09-03T11:40:57;99993.81;;;20.33;23.98
65384;BME280;51986;52.788;41.368;2022-09-03T11:43:28;99988.34;;;20.45;23.66
65384;BME280;51986;52.788;41.368;2022-09-03T11:46:25;99979.88;;;20.47;23.46
65384;BME280;51986;52.788;41.368;2022-09-03T11:49:12;99996.72;;;20.57;23.07
65384;BME280;51986;52.788;41.368;2022-09-03T11:51:40;99986.84;;;20.35;23.10
65384;BME280;51986;52.788;41.368;2022-09-03T11:56:41;99999.16;;;20.73;22.72
65384;BME280;51986;52.788;41.368;2022-09-03T12:10:08;99972.53;;;20.88;23.25
65384;BME280;51986;52.788;41.368;2022-09-03T12:18:10;99985.91;;;20.69;22.17
65384;BME280;51986;52.788;41.368;2022-09-03T12:20:38;99982.19;;;20.76;23.27
65384;BME280;51986;52.788;41.368;2022-09-03T12:23:06;99967.19;;;21.43;22.50
65384;BME280;51986;52.788;41.368;2022-09-03T12:25:33;99954.91;;;21.78;21.67
65384;BME280;51986;52.788;41.368;2022-09-03T12:28:10;99950.34;;;21.42;22.18
65384;BME280;51986;52.788;41.368;2022-09-03T12:30:38;99950.34;;;21.06;22.21
65384;BME280;51986;52.788;41.368;2022-09-03T12:33:06;99943.94;;;21.12;22.80
65384;BME280;51986;52.788;41.368;2022-09-03T12:35:33;99946.16;;;21.50;21.77
65384;BME280;51986;52.788;41.368;2022-09-03T12:38:24;99956.59;;;21.39;22.34
65384;BME280;51986;52.788;41.368;2022-09-03T12:40:52;99952.72;;;21.22;21.71
65384;BME280;51986;52.788;41.368;2022-09-03T12:43:40;99949.44;;;20.81;21.22
65384;BME280;51986;52.788;41.368;2022-09-03T12:46:15;99958.22;;;20.91;20.79
65384;BME280;51986;52.788;41.368;2022-09-03T12:48:54;99929.34;;;20.95;20.92
65384;BME280;51986;52.788;41.368;2022-09-03T12:51:42;99940.38;;;20.88;20.99
65384;BME280;51986;52.788;41.368;2022-09-03T12:54:23;99977.31;;;20.84;20.83
65384;BME280;51986;52.788;41.368;2022-09-03T12:56:57;99947.47;;;20.63;21.23
65384;BME280;51986;52.788;41.368;2022-09-03T12:59:27;99929.03;;;20.74;20.92
65384;BME280;51986;52.788;41.368;2022-09-03T13:01:59;99937.09;;;20.84;20.90
65384;BME280;51986;52.788;41.368;2022-09-03T13:04:31;99931.84;;;20.71;20.90
65384;BME280;51986;52.788;41.368;2022-09-03T13:07:07;99915.56;;;20.56;21.42
65384;BME280;51986;52.788;41.368;2022-09-03T13:09:38;99924.69;;;20.68;21.07
65384;BME280;51986;52.788;41.368;2022-09-03T13:12:21;99908.63;;;20.95;21.06
65384;BME280;51986;52.788;41.368;2022-09-03T13:14:51;99901.63;;;20.70;21.38
65384;BME280;51986;52.788;41.368;2022-09-03T13:17:42;99929.75;;;20.66;21.64
65384;BME280;51986;52.788;41.368;2022-09-03T13:20:36;99931.84;;;20.71;21.64
65384;BME280;51986;52.788;41.368;2022-09-03T13:24:12;99915.31;;;20.82;20.96
65384;BME280;51986;52.788;41.368;2022-09-03T13:31:47;99944.91;;;20.60;20.91
65384;BME280;51986;52.788;41.368;2022-09-03T13:34:39;99926.13;;;20.50;21.02
65384;BME280;51986;52.788;41.368;2022-09-03T13:37:30;99927.56;;;20.33;22.39
65384;BME280;51986;52.788;41.368;2022-09-03T13:40:09;99916.19;;;20.01;21.76
65384;BME280;51986;52.788;41.368;2022-09-03T13:42:41;99922.81;;;19.88;22.21
65384;BME280;51986;52.788;41.368;2022-09-03T13:45:25;99922.19;;;20.24;21.75
65384;BME280;51986;52.788;41.368;2022-09-03T13:50:39;99930.09;;;20.27;21.78
65384;BME280;51986;52.788;41.368;2022-09-03T13:56:27;99936.78;;;20.23;21.61
65384;BME280;51986;52.788;41.368;2022-09-03T13:59:08;99912.44;;;19.99;21.49
65384;BME280;51986;52.788;41.368;2022-09-03T14:04:19;99909.03;;;19.76;21.97
65384;BME280;51986;52.788;41.368;2022-09-03T14:07:12;99907.81;;;19.68;22.63
65384;BME280;51986;52.788;41.368;2022-09-03T14:09:53;99906.00;;;19.65;22.75
65384;BME280;51986;52.788;41.368;2022-09-03T14:12:34;99884.00;;;19.61;22.86
65384;BME280;51986;52.788;41.368;2022-09-03T14:20:33;99890.78;;;19.53;23.25
65384;BME280;51986;52.788;41.368;2022-09-03T14:23:25;99870.59;;;19.30;23.37
65384;BME280;51986;52.788;41.368;2022-09-03T14:25:56;99880.63;;;19.17;23.49
65384;BME280;51986;52.788;41.368;2022-09-03T14:28:32;99902.25;;;19.32;23.55
65384;BME280;51986;52.788;41.368;2022-09-03T14:31:22;99915.34;;;19.30;23.74
65384;BME280;51986;52.788;41.368;2022-09-03T14:33:59;99881.53;;;19.23;24.18
65384;BME280;51986;52.788;41.368;2022-09-03T14:36:53;99895.59;;;19.36;23.71
65384;BME280;51986;52.788;41.368;2022-09-03T14:39:54;99903.38;;;19.21;24.05
65384;BME280;51986;52.788;41.368;2022-09-03T14:48:23;99912.25;;;19.18;24.57
65384;BME280;51986;52.788;41.368;2022-09-03T14:51:25;99898.16;;;19.18;24.42
65384;BME280;51986;52.788;41.368;2022-09-03T15:11:03;99871.81;;;18.72;24.99
65384;BME280;51986;52.788;41.368;2022-09-03T15:13:48;99891.66;;;18.71;25.30
65384;BME280;51986;52.788;41.368;2022-09-03T15:16:44;99888.50;;;18.64;25.31
65384;BME280;51986;52.788;41.368;2022-09-03T15:25:16;99890.41;;;18.63;25.78
65384;BME280;51986;52.788;41.368;2022-09-03T15:30:58;99888.22;;;18.49;25.59
65384;BME280;51986;52.788;41.368;2022-09-03T15:36:23;99905.53;;;18.32;26.26
65384;BME280;51986;52.788;41.368;2022-09-03T15:39:00;99905.88;;;18.34;26.15
65384;BME280;51986;52.788;41.368;2022-09-03T15:41:45;99888.22;;;18.23;26.70
65384;BME280;51986;52.788;41.368;2022-09-03T15:44:16;99888.56;;;18.26;26.32
65384;BME280;51986;52.788;41.368;2022-09-03T15:58:08;99900.13;;;18.10;27.15
65384;BME280;51986;52.788;41.368;2022-09-03T16:00:51;99903.63;;;18.19;27.13
65384;BME280;51986;52.788;41.368;2022-09-03T16:03:32;99889.31;;;18.13;27.01
65384;BME280;51986;52.788;41.368;2022-09-03T16:06:06;99891.75;;;18.08;27.19
65384;BME280;51986;52.788;41.368;2022-09-03T16:08:58;99896.88;;;18.02;27.05
65384;BME280;51986;52.788;41.368;2022-09-03T16:11:44;99907.03;;;18.07;26.95
65384;BME280;51986;52.788;41.368;2022-09-03T16:17:23;99905.19;;;18.04;27.41
65384;BME280;51986;52.788;41.368;2022-09-03T16:20:17;99893.47;;;18.02;27.10
65384;BME280;51986;52.788;41.368;2022-09-03T16:33:29;99890.03;;;17.76;27.70
65384;BME280;51986;52.788;41.368;2022-09-03T16:36:36;99945.56;;;17.93;27.81
65384;BME280;51986;52.788;41.368;2022-09-03T16:39:11;99913.28;;;17.62;28.38
65384;BME280;51986;52.788;41.368;2022-09-03T16:44:30;99913.31;;;17.33;29.73
65384;BME280;51986;52.788;41.368;2022-09-03T16:55:09;99943.91;;;17.29;29.98
65384;BME280;51986;52.788;41.368;2022-09-03T16:57:46;99950.75;;;17.30;30.15
65384;BME280;51986;52.788;41.368;2022-09-03T17:00:19;99935.41;;;17.34;29.96
65384;BME280;51986;52.788;41.368;2022-09-03T17:08:30;99933.75;;;17.07;29.98
65384;BME280;51986;52.788;41.368;2022-09-03T17:11:15;99950.63;;;17.04;29.79
65384;BME280;51986;52.788;41.368;2022-09-03T17:17:15;99907.13;;;17.07;30.09
65384;BME280;51986;52.788;41.368;2022-09-03T17:19:58;99920.94;;;17.02;30.07
65384;BME280;51986;52.788;41.368;2022-09-03T17:23:00;99944.50;;;17.04;30.19
65384;BME280;51986;52.788;41.368;2022-09-03T17:25:37;99916.56;;;16.95;30.16